PWSweather.com
Personal Weather Stations
Station Observations
MACKBIG
Historic Main Street, Unionville, ON L3R6A5

Historic Main StreetUnionville, ON L3R6A5

Lat: 43.875506, Lon: -79.312903

Elevation: 590

Station Type: Davis VP2 + 6163

http://www.mackweather.com

Latest ConditionsUpdated 4:20:08 PM EDT Saturday, May 30, 2015
Currently Today's Max Today's Min Today's Average
Temperature 69.8°F21.0°C 83.7°F28.7°C 63.4°F17.4°C 71.8°F22.1°C
Dew Point 65.8°F18.8°C 72.3°F22.4°C 54.4°F12.4°C 64.2°F17.9°C
Winds 3.0 mph N4.8 kmh N 7.0 mph SW11.3 kmh SW - 1.5 mph 2.4 kmh
Wind Gusts 6.0 mph9.7 kmh 12.0 mph19.3 kmh - -
Humidity 87% 89% 61% 77%
Pressure 29.89 in1012.2 mb 29.97 in1014.9 mb 29.85 in1010.8 mb -
Precipitation - 0.72 in18.3 mm - -
Hour Temp Dew Point Humidity Winds Wind Gusts Pressure Precip Precip Rate Daily Precip Total
04:20 PM 69.8°F21.0°C 65.8°F18.8°C 87% 3.0 mph N4.8 kmh N 6.0 mph9.7 kmh 29.89 in1012.2 mb 0.15 in3.8 mm 0.90 in22.9 mm 0.72 in18.3 mm
04:10 PM 70.4°F21.3°C 66.0°F18.9°C 86% Calm Calm -- 29.89 in1012.2 mb - 0.14 in3.6 mm 0.59 in15.0 mm
04:00 PM 72.0°F22.2°C 67.2°F19.6°C 85% 1.0 mph NNW1.6 kmh NNW 2.0 mph3.2 kmh 29.89 in1012.2 mb 0.06 in1.5 mm 0.05 in1.3 mm 0.47 in11.9 mm
03:50 PM 73.0°F22.8°C 67.9°F19.9°C 84% 5.0 mph NNW8.0 kmh NNW 8.0 mph12.9 kmh 29.88 in1011.9 mb 0.02 in0.5 mm 0.12 in3.0 mm 0.40 in10.2 mm
03:40 PM 74.6°F23.7°C 69.5°F20.8°C 84% 1.0 mph NW1.6 kmh NW 5.0 mph8.0 kmh 29.88 in1011.9 mb 0.00 in0.0 mm 0.00 in0.0 mm 0.39 in9.9 mm
03:30 PM 75.3°F24.1°C 70.5°F21.4°C 85% 1.0 mph WSW1.6 kmh WSW 2.0 mph3.2 kmh 29.86 in1011.2 mb - 0.00 in0.0 mm 0.39 in9.9 mm
03:20 PM 75.3°F24.1°C 70.5°F21.4°C 85% Calm Calm 1.0 mph1.6 kmh 29.85 in1010.8 mb - 0.00 in0.0 mm 0.39 in9.9 mm
03:10 PM 75.6°F24.2°C 71.1°F21.7°C 86% Calm Calm 3.0 mph4.8 kmh 29.85 in1010.8 mb - 0.00 in0.0 mm 0.39 in9.9 mm
03:00 PM 75.7°F24.3°C 71.6°F22.0°C 87% 2.0 mph WSW3.2 kmh WSW 2.0 mph3.2 kmh 29.85 in1010.8 mb - 0.00 in0.0 mm 0.39 in9.9 mm
02:50 PM 75.7°F24.3°C 71.9°F22.2°C 88% 3.0 mph SW4.8 kmh SW 7.0 mph11.3 kmh 29.85 in1010.8 mb - 0.00 in0.0 mm 0.39 in9.9 mm
02:40 PM 75.7°F24.3°C 72.3°F22.4°C 89% Calm Calm -- 29.85 in1010.8 mb - 0.00 in0.0 mm 0.39 in9.9 mm
02:30 PM 74.6°F23.7°C 71.2°F21.8°C 89% Calm Calm -- 29.86 in1011.2 mb - 0.01 in0.3 mm 0.39 in9.9 mm
02:20 PM 74.5°F23.6°C 70.7°F21.5°C 88% 1.0 mph SW1.6 kmh SW 2.0 mph3.2 kmh 29.87 in1011.5 mb - 0.00 in0.0 mm 0.38 in9.7 mm
02:10 PM 73.8°F23.2°C 70.0°F21.1°C 88% Calm Calm -- 29.86 in1011.2 mb - 0.00 in0.0 mm 0.38 in9.7 mm
02:00 PM 73.5°F23.1°C 69.8°F21.0°C 88% Calm Calm -- 29.87 in1011.5 mb - 0.00 in0.0 mm 0.38 in9.7 mm
01:50 PM 73.2°F22.9°C 69.4°F20.8°C 88% Calm Calm -- 29.87 in1011.5 mb - 0.00 in0.0 mm 0.38 in9.7 mm
01:40 PM 72.0°F22.2°C 67.9°F19.9°C 87% Calm Calm -- 29.87 in1011.5 mb - 0.00 in0.0 mm 0.38 in9.7 mm
01:30 PM 71.9°F22.2°C 67.5°F19.7°C 86% 1.0 mph S1.6 kmh S 5.0 mph8.0 kmh 29.87 in1011.5 mb - 0.00 in0.0 mm 0.38 in9.7 mm
01:20 PM 72.8°F22.7°C 67.7°F19.8°C 84% 1.0 mph S1.6 kmh S 2.0 mph3.2 kmh 29.87 in1011.5 mb - 0.10 in2.5 mm 0.38 in9.7 mm
01:10 PM 74.6°F23.7°C 69.4°F20.8°C 84% 2.0 mph SW3.2 kmh SW 7.0 mph11.3 kmh 29.88 in1011.9 mb - 0.01 in0.3 mm 0.28 in7.1 mm
01:00 PM 75.3°F24.1°C 69.4°F20.8°C 82% Calm Calm -- 29.88 in1011.9 mb - 0.00 in0.0 mm 0.27 in6.9 mm
12:50 PM 75.9°F24.4°C 69.6°F20.9°C 81% 1.0 mph W1.6 kmh W 2.0 mph3.2 kmh 29.87 in1011.5 mb - 0.00 in0.0 mm 0.27 in6.9 mm
12:40 PM 76.4°F24.7°C 68.3°F20.2°C 76% Calm Calm -- 29.87 in1011.5 mb - 0.11 in2.8 mm 0.27 in6.9 mm
12:30 PM 79.9°F26.6°C 68.4°F20.2°C 68% 2.0 mph W3.2 kmh W 3.0 mph4.8 kmh 29.89 in1012.2 mb - 0.18 in4.6 mm 0.19 in4.8 mm
12:20 PM 83.7°F28.7°C 68.8°F20.4°C 61% 2.0 mph W3.2 kmh W 8.0 mph12.9 kmh 29.86 in1011.2 mb - 0.00 in0.0 mm 0.00 in0.0 mm
12:10 PM 82.8°F28.2°C 68.5°F20.3°C 62% 7.0 mph S11.3 kmh S 5.0 mph8.0 kmh 29.86 in1011.2 mb - 0.00 in0.0 mm 0.00 in0.0 mm
12:00 PM 83.2°F28.4°C 68.3°F20.2°C 61% 6.0 mph S9.7 kmh S 6.0 mph9.7 kmh 29.87 in1011.5 mb - 0.00 in0.0 mm 0.00 in0.0 mm
11:50 AM 83.2°F28.4°C 68.3°F20.2°C 61% 3.0 mph W4.8 kmh W 10.0 mph16.1 kmh 29.87 in1011.5 mb - 0.00 in0.0 mm 0.00 in0.0 mm
11:40 AM 83.0°F28.3°C 68.1°F20.1°C 61% 5.0 mph WSW8.0 kmh WSW 6.0 mph9.7 kmh 29.88 in1011.9 mb - 0.00 in0.0 mm 0.00 in0.0 mm
11:30 AM 83.1°F28.4°C 68.7°F20.4°C 62% 3.0 mph WNW4.8 kmh WNW 6.0 mph9.7 kmh 29.88 in1011.9 mb - 0.00 in0.0 mm 0.00 in0.0 mm
11:20 AM 83.1°F28.4°C 69.2°F20.7°C 63% 6.0 mph SW9.7 kmh SW 12.0 mph19.3 kmh 29.88 in1011.9 mb - 0.00 in0.0 mm 0.00 in0.0 mm
11:10 AM 82.2°F27.9°C 68.8°F20.4°C 64% 7.0 mph SW11.3 kmh SW 12.0 mph19.3 kmh 29.88 in1011.9 mb - 0.00 in0.0 mm 0.00 in0.0 mm
11:00 AM 82.3°F27.9°C 68.4°F20.2°C 63% 5.0 mph WSW8.0 kmh WSW 7.0 mph11.3 kmh 29.88 in1011.9 mb - 0.00 in0.0 mm 0.00 in0.0 mm
10:50 AM 82.3°F27.9°C 68.9°F20.5°C 64% Calm Calm 2.0 mph3.2 kmh 29.88 in1011.9 mb - 0.00 in0.0 mm 0.00 in0.0 mm
10:40 AM 82.1°F27.8°C 69.2°F20.7°C 65% 1.0 mph SW1.6 kmh SW 5.0 mph8.0 kmh 29.88 in1011.9 mb - 0.00 in0.0 mm 0.00 in0.0 mm
10:30 AM 81.7°F27.6°C 68.8°F20.4°C 65% 3.0 mph SW4.8 kmh SW 10.0 mph16.1 kmh 29.88 in1011.9 mb - 0.00 in0.0 mm 0.00 in0.0 mm
10:20 AM 81.4°F27.4°C 68.9°F20.5°C 66% 3.0 mph WSW4.8 kmh WSW 8.0 mph12.9 kmh 29.89 in1012.2 mb - 0.00 in0.0 mm 0.00 in0.0 mm
10:10 AM 81.0°F27.2°C 68.6°F20.3°C 66% 5.0 mph WSW8.0 kmh WSW 5.0 mph8.0 kmh 29.89 in1012.2 mb - 0.00 in0.0 mm 0.00 in0.0 mm
10:00 AM 80.1°F26.7°C 68.6°F20.3°C 68% 6.0 mph SW9.7 kmh SW 12.0 mph19.3 kmh 29.89 in1012.2 mb - 0.00 in0.0 mm 0.00 in0.0 mm
09:50 AM 79.2°F26.2°C 68.2°F20.1°C 69% 1.0 mph SW1.6 kmh SW 6.0 mph9.7 kmh 29.89 in1012.2 mb - 0.00 in0.0 mm 0.00 in0.0 mm
09:40 AM 78.3°F25.7°C 67.7°F19.8°C 70% 6.0 mph SW9.7 kmh SW 6.0 mph9.7 kmh 29.90 in1012.5 mb - 0.00 in0.0 mm 0.00 in0.0 mm
09:30 AM 77.7°F25.4°C 67.5°F19.7°C 71% 2.0 mph SSW3.2 kmh SSW 5.0 mph8.0 kmh 29.90 in1012.5 mb - 0.00 in0.0 mm 0.00 in0.0 mm
09:20 AM 76.8°F24.9°C 67.4°F19.7°C 73% Calm Calm 3.0 mph4.8 kmh 29.90 in1012.5 mb - 0.00 in0.0 mm 0.00 in0.0 mm
09:10 AM 76.1°F24.5°C 66.8°F19.3°C 73% 6.0 mph SSW9.7 kmh SSW 9.0 mph14.5 kmh 29.90 in1012.5 mb - 0.00 in0.0 mm 0.00 in0.0 mm
09:00 AM 75.7°F24.3°C 66.8°F19.3°C 74% 1.0 mph SW1.6 kmh SW 12.0 mph19.3 kmh 29.91 in1012.9 mb - 0.00 in0.0 mm 0.00 in0.0 mm
08:50 AM 75.6°F24.2°C 66.7°F19.3°C 74% Calm Calm 5.0 mph8.0 kmh 29.91 in1012.9 mb - 0.00 in0.0 mm 0.00 in0.0 mm
08:40 AM 75.0°F23.9°C 66.5°F19.2°C 75% 2.0 mph WSW3.2 kmh WSW 6.0 mph9.7 kmh 29.91 in1012.9 mb - 0.00 in0.0 mm 0.00 in0.0 mm
08:30 AM 74.3°F23.5°C 66.6°F19.2°C 77% 2.0 mph SW3.2 kmh SW 5.0 mph8.0 kmh 29.91 in1012.9 mb - 0.00 in0.0 mm 0.00 in0.0 mm
08:20 AM 73.7°F23.2°C 66.4°F19.1°C 78% Calm Calm 3.0 mph4.8 kmh 29.91 in1012.9 mb - 0.00 in0.0 mm 0.00 in0.0 mm
08:10 AM 73.1°F22.8°C 65.9°F18.8°C 78% 2.0 mph WSW3.2 kmh WSW 3.0 mph4.8 kmh 29.91 in1012.9 mb - 0.00 in0.0 mm 0.00 in0.0 mm
08:00 AM 72.7°F22.6°C 65.8°F18.8°C 79% 5.0 mph WSW8.0 kmh WSW 10.0 mph16.1 kmh 29.91 in1012.9 mb - 0.00 in0.0 mm 0.00 in0.0 mm
07:50 AM 72.3°F22.4°C 65.8°F18.8°C 80% 6.0 mph WSW9.7 kmh WSW 12.0 mph19.3 kmh 29.91 in1012.9 mb - 0.00 in0.0 mm 0.00 in0.0 mm
07:40 AM 71.6°F22.0°C 65.8°F18.8°C 82% 2.0 mph SW3.2 kmh SW 8.0 mph12.9 kmh 29.91 in1012.9 mb - 0.00 in0.0 mm 0.00 in0.0 mm
07:30 AM 70.7°F21.5°C 65.3°F18.5°C 83% 1.0 mph SW1.6 kmh SW 5.0 mph8.0 kmh 29.91 in1012.9 mb - 0.00 in0.0 mm 0.00 in0.0 mm
07:20 AM 70.1°F21.2°C 65.0°F18.3°C 84% 3.0 mph SW4.8 kmh SW 7.0 mph11.3 kmh 29.91 in1012.9 mb - 0.00 in0.0 mm 0.00 in0.0 mm
07:10 AM 69.4°F20.8°C 64.7°F18.2°C 85% 1.0 mph SW1.6 kmh SW 5.0 mph8.0 kmh 29.91 in1012.9 mb - 0.00 in0.0 mm 0.00 in0.0 mm
07:00 AM 68.9°F20.5°C 64.2°F17.9°C 85% 1.0 mph SW1.6 kmh SW 7.0 mph11.3 kmh 29.91 in1012.9 mb - 0.00 in0.0 mm 0.00 in0.0 mm
06:50 AM 68.5°F20.3°C 63.8°F17.7°C 85% 5.0 mph SW8.0 kmh SW 6.0 mph9.7 kmh 29.91 in1012.9 mb - 0.00 in0.0 mm 0.00 in0.0 mm
06:40 AM 68.3°F20.2°C 63.6°F17.6°C 85% Calm Calm -- 29.90 in1012.5 mb - 0.00 in0.0 mm 0.00 in0.0 mm
06:30 AM 68.2°F20.1°C 63.5°F17.5°C 85% 1.0 mph SW1.6 kmh SW -- 29.90 in1012.5 mb 0.00 in0.0 mm 0.00 in0.0 mm 0.00 in0.0 mm
06:20 AM 68.1°F20.1°C 63.4°F17.4°C 85% Calm Calm -- 29.90 in1012.5 mb 0.00 in0.0 mm 0.00 in0.0 mm 0.00 in0.0 mm
06:10 AM 68.0°F20.0°C 63.3°F17.4°C 85% 1.0 mph SW1.6 kmh SW -- 29.90 in1012.5 mb 0.00 in0.0 mm 0.00 in0.0 mm 0.00 in0.0 mm
06:00 AM 68.0°F20.0°C 63.3°F17.4°C 85% Calm Calm -- 29.90 in1012.5 mb 0.00 in0.0 mm 0.00 in0.0 mm 0.00 in0.0 mm
05:50 AM 68.0°F20.0°C 63.3°F17.4°C 85% 1.0 mph SW1.6 kmh SW 6.0 mph9.7 kmh 29.90 in1012.5 mb 0.00 in0.0 mm 0.00 in0.0 mm 0.00 in0.0 mm
05:40 AM 67.9°F19.9°C 63.2°F17.3°C 85% 2.0 mph S3.2 kmh S 10.0 mph16.1 kmh 29.90 in1012.5 mb 0.00 in0.0 mm 0.00 in0.0 mm 0.00 in0.0 mm
05:30 AM 67.9°F19.9°C 62.9°F17.2°C 84% Calm Calm -- 29.90 in1012.5 mb 0.00 in0.0 mm 0.00 in0.0 mm 0.00 in0.0 mm
05:20 AM 67.9°F19.9°C 62.9°F17.2°C 84% Calm Calm 6.0 mph9.7 kmh 29.90 in1012.5 mb 0.00 in0.0 mm 0.00 in0.0 mm 0.00 in0.0 mm
05:10 AM 67.8°F19.9°C 62.8°F17.1°C 84% 1.0 mph SW1.6 kmh SW 6.0 mph9.7 kmh 29.90 in1012.5 mb 0.00 in0.0 mm 0.00 in0.0 mm 0.00 in0.0 mm
05:00 AM 67.8°F19.9°C 62.8°F17.1°C 84% Calm Calm -- 29.90 in1012.5 mb 0.00 in0.0 mm 0.00 in0.0 mm 0.00 in0.0 mm
04:50 AM 67.8°F19.9°C 62.8°F17.1°C 84% 2.0 mph SSW3.2 kmh SSW 3.0 mph4.8 kmh 29.90 in1012.5 mb 0.00 in0.0 mm 0.00 in0.0 mm 0.00 in0.0 mm
04:40 AM 67.6°F19.8°C 62.6°F17.0°C 84% 1.0 mph SSW1.6 kmh SSW 6.0 mph9.7 kmh 29.90 in1012.5 mb 0.00 in0.0 mm 0.00 in0.0 mm 0.00 in0.0 mm
04:30 AM 67.3°F19.6°C 62.3°F16.8°C 84% 3.0 mph SW4.8 kmh SW 5.0 mph8.0 kmh 29.90 in1012.5 mb 0.00 in0.0 mm 0.00 in0.0 mm 0.00 in0.0 mm
04:20 AM 67.1°F19.5°C 62.1°F16.7°C 84% Calm Calm 3.0 mph4.8 kmh 29.90 in1012.5 mb 0.00 in0.0 mm 0.00 in0.0 mm 0.00 in0.0 mm
04:10 AM 66.8°F19.3°C 61.8°F16.6°C 84% 1.0 mph SSW1.6 kmh SSW 3.0 mph4.8 kmh 29.90 in1012.5 mb 0.00 in0.0 mm 0.00 in0.0 mm 0.00 in0.0 mm
04:00 AM 66.5°F19.2°C 61.2°F16.2°C 83% Calm Calm -- 29.91 in1012.9 mb 0.00 in0.0 mm 0.00 in0.0 mm 0.00 in0.0 mm
03:50 AM 66.3°F19.1°C 61.0°F16.1°C 83% Calm Calm -- 29.91 in1012.9 mb 0.00 in0.0 mm 0.00 in0.0 mm 0.00 in0.0 mm
03:40 AM 66.1°F18.9°C 60.8°F16.0°C 83% Calm Calm -- 29.91 in1012.9 mb 0.00 in0.0 mm 0.00 in0.0 mm 0.00 in0.0 mm
03:30 AM 65.5°F18.6°C 59.9°F15.5°C 82% 1.0 mph SSW1.6 kmh SSW -- 29.91 in1012.9 mb 0.00 in0.0 mm 0.00 in0.0 mm 0.00 in0.0 mm
03:20 AM 64.9°F18.3°C 58.5°F14.7°C 80% Calm Calm -- 29.91 in1012.9 mb 0.00 in0.0 mm 0.00 in0.0 mm 0.00 in0.0 mm
03:10 AM 64.2°F17.9°C 57.2°F14.0°C 78% 2.0 mph S3.2 kmh S 3.0 mph4.8 kmh 29.91 in1012.9 mb 0.00 in0.0 mm 0.00 in0.0 mm 0.00 in0.0 mm
03:00 AM 63.9°F17.7°C 56.2°F13.4°C 76% Calm Calm -- 29.92 in1013.2 mb 0.00 in0.0 mm 0.00 in0.0 mm 0.00 in0.0 mm
02:50 AM 63.6°F17.6°C 55.2°F12.9°C 74% Calm Calm -- 29.92 in1013.2 mb 0.00 in0.0 mm 0.00 in0.0 mm 0.00 in0.0 mm
02:40 AM 63.4°F17.4°C 55.0°F12.8°C 74% Calm Calm -- 29.93 in1013.5 mb 0.00 in0.0 mm 0.00 in0.0 mm 0.00 in0.0 mm
02:30 AM 63.5°F17.5°C 54.7°F12.6°C 73% Calm Calm -- 29.93 in1013.5 mb 0.00 in0.0 mm 0.00 in0.0 mm 0.00 in0.0 mm
02:20 AM 63.6°F17.6°C 54.8°F12.7°C 73% Calm Calm -- 29.93 in1013.5 mb 0.00 in0.0 mm 0.00 in0.0 mm 0.00 in0.0 mm
02:10 AM 63.6°F17.6°C 54.4°F12.4°C 72% Calm Calm -- 29.93 in1013.5 mb 0.00 in0.0 mm 0.00 in0.0 mm 0.00 in0.0 mm
02:00 AM 63.8°F17.7°C 54.6°F12.6°C 72% Calm Calm -- 29.93 in1013.5 mb 0.00 in0.0 mm 0.00 in0.0 mm 0.00 in0.0 mm
01:50 AM 63.9°F17.7°C 54.7°F12.6°C 72% Calm Calm -- 29.93 in1013.5 mb 0.00 in0.0 mm 0.00 in0.0 mm 0.00 in0.0 mm
01:40 AM 63.9°F17.7°C 54.7°F12.6°C 72% Calm Calm -- 29.93 in1013.5 mb 0.00 in0.0 mm 0.00 in0.0 mm 0.00 in0.0 mm
01:30 AM 64.1°F17.8°C 54.5°F12.5°C 71% Calm Calm -- 29.93 in1013.5 mb 0.00 in0.0 mm 0.00 in0.0 mm 0.00 in0.0 mm
01:20 AM 64.1°F17.8°C 54.5°F12.5°C 71% Calm Calm -- 29.94 in1013.9 mb 0.00 in0.0 mm 0.00 in0.0 mm 0.00 in0.0 mm
01:10 AM 64.2°F17.9°C 54.6°F12.6°C 71% Calm Calm -- 29.94 in1013.9 mb 0.00 in0.0 mm 0.00 in0.0 mm 0.00 in0.0 mm
01:00 AM 64.3°F17.9°C 54.7°F12.6°C 71% Calm Calm -- 29.95 in1014.2 mb 0.00 in0.0 mm 0.00 in0.0 mm 0.00 in0.0 mm
12:50 AM 64.4°F18.0°C 54.4°F12.4°C 70% Calm Calm -- 29.95 in1014.2 mb 0.00 in0.0 mm 0.00 in0.0 mm 0.00 in0.0 mm
12:40 AM 64.6°F18.1°C 55.0°F12.8°C 71% Calm Calm -- 29.95 in1014.2 mb 0.00 in0.0 mm 0.00 in0.0 mm 0.00 in0.0 mm
12:30 AM 64.7°F18.2°C 55.1°F12.8°C 71% Calm Calm -- 29.95 in1014.2 mb 0.00 in0.0 mm 0.00 in0.0 mm 0.00 in0.0 mm
12:20 AM 64.8°F18.2°C 54.8°F12.7°C 70% Calm Calm -- 29.96 in1014.6 mb 0.00 in0.0 mm 0.00 in0.0 mm 0.00 in0.0 mm
12:10 AM 65.0°F18.3°C 55.0°F12.8°C 70% Calm Calm -- 29.97 in1014.9 mb 0.00 in0.0 mm 0.00 in0.0 mm 0.00 in0.0 mm
12:00 AM 65.2°F18.4°C 55.2°F12.9°C 70% Calm Calm -- 29.97 in1014.9 mb 0.00 in0.0 mm 0.00 in0.0 mm 0.00 in0.0 mm